createdAt,value
2019-02-14T00:03:22.619Z,103415.12
2019-02-14T00:06:11.907Z,103461.02
2019-02-14T00:08:55.789Z,103477.31
2019-02-14T00:11:45.136Z,103479.29
2019-02-14T00:17:22.598Z,103421.58
2019-02-14T00:20:12.179Z,103441.78
2019-02-14T00:23:01.860Z,103432.06
2019-02-14T00:25:44.440Z,103427.48
2019-02-14T00:31:35.981Z,103432.05
2019-02-14T00:34:26.369Z,103445.04
2019-02-14T00:37:09.763Z,103475.19
2019-02-14T00:39:59.364Z,103437.64
2019-02-14T00:42:41.676Z,103445.23
2019-02-14T00:45:23.283Z,103441.39
2019-02-14T00:48:13.018Z,103446.51
2019-02-14T00:50:43.561Z,103471.95
2019-02-14T00:53:33.235Z,103441.20
2019-02-14T00:56:15.558Z,103443.36
2019-02-14T00:59:18.709Z,103484.75
2019-02-14T01:01:48.492Z,103453.95
2019-02-14T01:04:19.053Z,103488.41
2019-02-14T01:10:05.510Z,103474.55
2019-02-14T01:12:47.532Z,103431.81
2019-02-14T01:18:28.758Z,103425.36
2019-02-14T01:20:58.722Z,103446.25
2019-02-14T01:23:48.186Z,103413.81
2019-02-14T01:26:30.520Z,103419.13
2019-02-14T01:32:07.736Z,103413.39
2019-02-14T01:35:10.837Z,103452.57
2019-02-14T01:37:41.130Z,103457.09
2019-02-14T01:40:30.803Z,103427.25
2019-02-14T01:43:12.807Z,103428.99
2019-02-14T01:45:54.428Z,103466.25
2019-02-14T01:48:24.687Z,103460.63
2019-02-14T01:51:14.579Z,103417.20
2019-02-14T01:53:56.210Z,103464.20
2019-02-14T01:59:40.320Z,103468.62
2019-02-14T02:02:29.748Z,103465.79
2019-02-14T02:05:11.635Z,103434.82
2019-02-14T02:10:49.935Z,103468.69
2019-02-14T02:13:39.321Z,103458.52
2019-02-14T02:16:21.177Z,103454.55
2019-02-14T02:19:10.556Z,103418.84
2019-02-14T02:21:52.693Z,103417.34
2019-02-14T02:24:42.063Z,103434.52
2019-02-14T02:27:24.600Z,103395.33
2019-02-14T02:30:14.552Z,103435.02
2019-02-14T02:32:56.113Z,103429.63
2019-02-14T02:38:49.637Z,103400.39
2019-02-14T02:41:38.992Z,103387.86
2019-02-14T02:44:21.211Z,103390.45
2019-02-14T02:47:05.541Z,103386.98
2019-02-14T02:53:05.033Z,103397.83
2019-02-14T02:55:54.683Z,103439.05
2019-02-14T02:58:44.230Z,103446.22
2019-02-14T03:01:27.810Z,103455.99
2019-02-14T03:07:06.262Z,103428.52
2019-02-14T03:09:55.592Z,103423.16
2019-02-14T03:12:37.295Z,103426.95
2019-02-14T03:15:26.667Z,103450.57
2019-02-14T03:21:05.121Z,103444.55
2019-02-14T03:26:41.823Z,103445.52
2019-02-14T03:29:31.266Z,103447.72
2019-02-14T03:32:13.559Z,103415.80
2019-02-14T03:35:03.039Z,103464.94
2019-02-14T03:37:44.738Z,103470.26
2019-02-14T03:40:34.270Z,103440.32
2019-02-14T03:43:16.330Z,103469.54
2019-02-14T03:45:58.573Z,103432.68
2019-02-14T03:48:47.912Z,103468.78
2019-02-14T03:51:32.043Z,103437.55
2019-02-14T03:57:21.858Z,103469.19
2019-02-14T04:00:13.674Z,103469.30
2019-02-14T04:02:55.718Z,103473.64
2019-02-14T04:05:44.996Z,103485.14
2019-02-14T04:08:27.557Z,103475.09
2019-02-14T04:14:14.787Z,103457.16
2019-02-14T04:16:57.359Z,103436.09
2019-02-14T04:19:47.824Z,103472.27
2019-02-14T04:22:29.735Z,103430.47
2019-02-14T04:28:05.787Z,103464.08
2019-02-14T04:30:55.472Z,103471.39
2019-02-14T04:33:37.323Z,103460.86
2019-02-14T04:39:14.368Z,103446.63
2019-02-14T04:44:52.815Z,103438.17
2019-02-14T04:47:35.265Z,103442.34
2019-02-14T04:53:20.211Z,103412.62
2019-02-14T04:56:01.959Z,103455.80
2019-02-14T04:58:51.633Z,103456.34
2019-02-14T05:01:34.135Z,103423.99
2019-02-14T05:04:23.497Z,103453.41
2019-02-14T05:07:05.651Z,103446.02
2019-02-14T05:09:55.315Z,103432.34
2019-02-14T05:12:42.747Z,103438.33
2019-02-14T05:15:28.691Z,103408.48
2019-02-14T05:18:18.238Z,103455.34
2019-02-14T05:21:01.005Z,103426.58
2019-02-14T05:23:50.605Z,103424.94
2019-02-14T05:26:33.154Z,103429.48
2019-02-14T05:32:23.538Z,103433.47
2019-02-14T05:38:15.736Z,103442.98
2019-02-14T05:41:05.346Z,103476.12
2019-02-14T05:43:47.823Z,103438.82
2019-02-14T05:46:37.109Z,103448.77
2019-02-14T05:49:20.161Z,103464.84
2019-02-14T05:52:11.547Z,103472.12
2019-02-14T05:58:01.082Z,103504.08
2019-02-14T06:00:32.605Z,103496.05
2019-02-14T06:03:03.361Z,103502.45
2019-02-14T06:05:53.363Z,103469.80
2019-02-14T06:08:35.160Z,103511.11
2019-02-14T06:14:22.226Z,103506.16
2019-02-14T06:17:04.670Z,103500.58
2019-02-14T06:19:54.342Z,103477.94
2019-02-14T06:22:57.760Z,103499.91
2019-02-14T06:25:27.646Z,103473.36
2019-02-14T06:31:14.839Z,103524.72
2019-02-14T06:33:56.920Z,103525.95
2019-02-14T06:36:27.386Z,103528.70
2019-02-14T06:38:59.144Z,103529.94
2019-02-14T06:47:33.661Z,103490.41
2019-02-14T06:50:23.439Z,103488.23
2019-02-14T06:53:06.788Z,103520.20
2019-02-14T06:58:33.099Z,103532.08
2019-02-14T07:01:16.961Z,103495.79
2019-02-14T07:04:06.251Z,103496.09
2019-02-14T07:06:48.387Z,103503.08
2019-02-14T07:09:18.945Z,103536.09
2019-02-14T07:12:08.351Z,103504.37
2019-02-14T07:14:57.729Z,103508.09
2019-02-14T07:17:40.271Z,103549.86
2019-02-14T07:20:29.602Z,103517.73
2019-02-14T07:23:11.521Z,103555.16
2019-02-14T07:26:00.860Z,103516.50
2019-02-14T07:28:42.906Z,103533.52
2019-02-14T07:31:32.226Z,103529.89
2019-02-14T07:34:14.191Z,103569.73
2019-02-14T07:40:04.763Z,103542.34
2019-02-14T07:42:54.105Z,103552.54
2019-02-14T07:45:35.811Z,103552.48
2019-02-14T07:48:19.045Z,103560.31
2019-02-14T07:51:22.450Z,103551.17
2019-02-14T07:53:51.686Z,103549.16
2019-02-14T07:59:29.812Z,103586.36
2019-02-14T08:02:00.267Z,103581.42
2019-02-14T08:07:44.811Z,103558.72
2019-02-14T08:10:27.682Z,103549.15
2019-02-14T08:13:17.376Z,103576.08
2019-02-14T08:15:59.739Z,103537.52
2019-02-14T08:21:36.771Z,103576.34
2019-02-14T08:24:07.280Z,103575.31
2019-02-14T08:26:56.626Z,103567.56
2019-02-14T08:32:33.303Z,103541.19
2019-02-14T08:35:22.977Z,103574.25
2019-02-14T08:38:05.788Z,103573.34
2019-02-14T08:43:43.268Z,103571.16
2019-02-14T08:46:47.549Z,103546.95
2019-02-14T08:49:18.048Z,103567.07
2019-02-14T08:54:54.694Z,103533.77
2019-02-14T08:57:44.674Z,103579.57
2019-02-14T09:00:26.919Z,103572.94
2019-02-14T09:02:57.632Z,103569.38
2019-02-14T09:08:43.236Z,103564.77
2019-02-14T09:14:28.021Z,103531.55
2019-02-14T09:17:10.307Z,103534.11
2019-02-14T09:19:59.786Z,103560.25
2019-02-14T09:22:42.299Z,103520.09
2019-02-14T09:25:32.296Z,103519.20
2019-02-14T09:28:13.941Z,103542.59
2019-02-14T09:31:02.934Z,103548.48
2019-02-14T09:33:44.410Z,103506.48
2019-02-14T09:39:23.570Z,103540.83
2019-02-14T09:42:12.898Z,103535.89
2019-02-14T09:44:55.915Z,103535.45
2019-02-14T09:47:40.168Z,103508.66
2019-02-14T09:50:29.334Z,103510.14
2019-02-14T09:53:11.265Z,103509.64
2019-02-14T09:56:00.609Z,103510.87
2019-02-14T09:58:42.340Z,103542.02
2019-02-14T10:04:40.009Z,103516.64
2019-02-14T10:07:29.353Z,103513.55
2019-02-14T10:10:18.895Z,103506.66
2019-02-14T10:13:01.514Z,103511.97
2019-02-14T10:15:50.909Z,103506.42
2019-02-14T10:18:32.827Z,103515.91
2019-02-14T10:21:22.414Z,103533.33
2019-02-14T10:24:04.197Z,103525.84
2019-02-14T10:26:53.559Z,103506.03
2019-02-14T10:29:36.316Z,103538.98
2019-02-14T10:32:25.754Z,103510.17
2019-02-14T10:35:08.144Z,103508.95
2019-02-14T10:37:57.527Z,103536.11
2019-02-14T10:40:40.497Z,103501.13
2019-02-14T10:43:29.873Z,103508.39
2019-02-14T10:46:12.159Z,103530.77
2019-02-14T10:49:02.499Z,103498.78
2019-02-14T10:51:45.853Z,103529.10
2019-02-14T10:57:34.643Z,103530.52
2019-02-14T11:00:18.578Z,103533.05
2019-02-14T11:05:58.656Z,103512.58
2019-02-14T11:08:48.102Z,103517.80
2019-02-14T11:11:30.831Z,103544.11
2019-02-14T11:14:28.703Z,103521.20
2019-02-14T11:17:04.820Z,103515.90
2019-02-14T11:19:54.496Z,103506.51
2019-02-14T11:22:25.213Z,103527.66
2019-02-14T11:25:34.209Z,103498.43
2019-02-14T11:28:16.620Z,103503.19
2019-02-14T11:31:25.184Z,103496.43
2019-02-14T11:34:08.087Z,103503.25
2019-02-14T11:39:47.548Z,103532.77
2019-02-14T11:42:39.255Z,103498.31
2019-02-14T11:45:23.542Z,103522.83
2019-02-14T11:48:13.199Z,103487.56
2019-02-14T11:50:55.128Z,103488.47
2019-02-14T11:56:32.075Z,103494.73
2019-02-14T11:59:23.336Z,103490.61
2019-02-14T12:02:06.118Z,103523.25
2019-02-14T12:04:56.131Z,103526.24
2019-02-14T12:07:39.020Z,103523.22
2019-02-14T12:10:28.460Z,103484.92
2019-02-14T12:13:10.826Z,103489.40
2019-02-14T12:16:00.296Z,103489.62
2019-02-14T12:18:43.017Z,103503.61
2019-02-14T12:21:32.607Z,103469.45
2019-02-14T12:24:14.706Z,103478.87
2019-02-14T12:27:04.371Z,103469.45
2019-02-14T12:29:46.615Z,103501.77
2019-02-14T12:32:36.282Z,103464.79
2019-02-14T12:35:18.838Z,103458.59
2019-02-14T12:38:09.080Z,103456.16
2019-02-14T12:40:52.032Z,103454.30
2019-02-14T12:43:22.597Z,103486.55
2019-02-14T12:46:04.637Z,103451.88
2019-02-14T12:51:55.645Z,103444.38
2019-02-14T12:54:45.357Z,103437.56
2019-02-14T12:57:27.807Z,103457.20
2019-02-14T13:00:18.900Z,103436.75
2019-02-14T13:03:00.849Z,103440.73
2019-02-14T13:05:50.191Z,103430.85
2019-02-14T13:08:31.877Z,103430.50
2019-02-14T13:11:21.390Z,103433.05
2019-02-14T13:14:03.302Z,103463.27
2019-02-14T13:16:52.660Z,103450.89
2019-02-14T13:19:35.622Z,103456.05
2019-02-14T13:22:24.988Z,103423.91
2019-02-14T13:25:07.751Z,103425.16
2019-02-14T13:27:57.824Z,103451.64
2019-02-14T13:30:40.693Z,103446.86
2019-02-14T13:33:30.186Z,103411.45
2019-02-14T13:36:12.366Z,103439.34
2019-02-14T13:42:09.348Z,103401.59
2019-02-14T13:44:51.368Z,103403.73
2019-02-14T13:47:41.188Z,103402.19
2019-02-14T13:50:23.219Z,103426.41
2019-02-14T13:53:12.664Z,103404.44
2019-02-14T13:55:54.347Z,103426.14
2019-02-14T13:58:43.801Z,103405.52
2019-02-14T14:01:27.869Z,103422.22
2019-02-14T14:04:17.405Z,103393.48
2019-02-14T14:06:59.760Z,103385.56
2019-02-14T14:12:38.970Z,103392.33
2019-02-14T14:18:17.434Z,103398.50
2019-02-14T14:21:06.803Z,103418.09
2019-02-14T14:23:48.976Z,103403.50
2019-02-14T14:29:41.378Z,103415.95
2019-02-14T14:35:32.047Z,103393.45
2019-02-14T14:38:21.362Z,103397.27
2019-02-14T14:41:03.640Z,103396.86
2019-02-14T14:44:05.557Z,103399.42
2019-02-14T14:46:54.882Z,103428.61
2019-02-14T14:49:44.750Z,103396.52
2019-02-14T14:52:27.342Z,103395.45
2019-02-14T14:58:18.019Z,103396.09
2019-02-14T15:01:07.909Z,103395.28
2019-02-14T15:03:38.325Z,103431.23
2019-02-14T15:06:29.608Z,103428.89
2019-02-14T15:09:11.960Z,103394.06
2019-02-14T15:12:01.329Z,103393.30
2019-02-14T15:14:43.949Z,103409.95
2019-02-14T15:17:33.365Z,103399.73
2019-02-14T15:20:15.847Z,103392.67
2019-02-14T15:23:05.197Z,103391.53
2019-02-14T15:25:47.043Z,103401.51
2019-02-14T15:28:50.215Z,103435.16
2019-02-14T15:31:20.194Z,103433.48
2019-02-14T15:34:09.857Z,103405.14
2019-02-14T15:36:52.142Z,103400.48
2019-02-14T15:42:42.475Z,103402.61
2019-02-14T15:45:12.860Z,103432.30
2019-02-14T15:47:57.377Z,103435.23
2019-02-14T15:50:46.738Z,103435.11
2019-02-14T15:53:28.642Z,103435.08
2019-02-14T15:56:18.064Z,103405.36
2019-02-14T15:59:00.224Z,103396.16
2019-02-14T16:02:04.397Z,103425.72
2019-02-14T16:04:34.596Z,103432.03
2019-02-14T16:07:24.474Z,103429.49
2019-02-14T16:10:06.207Z,103437.20
2019-02-14T16:15:43.453Z,103411.58
2019-02-14T16:18:32.984Z,103443.83
2019-02-14T16:21:15.890Z,103410.09
2019-02-14T16:24:05.230Z,103412.33
2019-02-14T16:26:47.172Z,103438.59
2019-02-14T16:32:25.185Z,103444.22
2019-02-14T16:35:14.532Z,103413.48
2019-02-14T16:37:46.527Z,103445.93
2019-02-14T16:43:36.998Z,103447.14
2019-02-14T16:49:27.901Z,103418.32
2019-02-14T16:52:09.773Z,103412.12
2019-02-14T16:55:01.437Z,103425.11
2019-02-14T16:57:45.497Z,103448.62
2019-02-14T17:03:26.118Z,103413.17
2019-02-14T17:09:18.823Z,103415.39
2019-02-14T17:12:08.540Z,103411.11
2019-02-14T17:14:50.599Z,103423.94
2019-02-14T17:17:39.959Z,103423.23
2019-02-14T17:20:21.979Z,103419.22
2019-02-14T17:23:11.647Z,103423.19
2019-02-14T17:25:54.280Z,103451.09
2019-02-14T17:31:46.904Z,103415.63
2019-02-14T17:34:36.557Z,103418.23
2019-02-14T17:37:18.710Z,103420.88
2019-02-14T17:40:08.310Z,103431.27
2019-02-14T17:42:52.490Z,103424.72
2019-02-14T17:45:34.549Z,103433.68
2019-02-14T17:48:23.931Z,103429.20
2019-02-14T17:51:06.566Z,103458.23
2019-02-14T17:53:55.969Z,103456.87
2019-02-14T17:56:37.854Z,103430.79
2019-02-14T18:02:36.907Z,103425.57
2019-02-14T18:05:08.684Z,103427.34
2019-02-14T18:08:00.278Z,103426.14
2019-02-14T18:10:42.596Z,103426.56
2019-02-14T18:13:32.083Z,103447.23
2019-02-14T18:16:14.144Z,103448.41
2019-02-14T18:19:05.829Z,103412.09
2019-02-14T18:21:47.269Z,103425.13
2019-02-14T18:27:23.986Z,103447.53
2019-02-14T18:30:13.438Z,103450.09
2019-02-14T18:32:55.106Z,103450.72
2019-02-14T18:35:44.690Z,103420.05
2019-02-14T18:38:26.522Z,103423.42
2019-02-14T18:41:15.900Z,103427.56
2019-02-14T18:43:58.186Z,103458.41
2019-02-14T18:46:39.791Z,103432.02
2019-02-14T18:49:29.175Z,103465.78
2019-02-14T18:52:12.856Z,103468.25
2019-02-14T18:55:02.133Z,103437.45
2019-02-14T18:57:44.526Z,103445.41
2019-02-14T19:03:36.703Z,103473.76
2019-02-14T19:06:40.125Z,103470.50
2019-02-14T19:09:12.705Z,103433.02
2019-02-14T19:12:02.080Z,103442.99
2019-02-14T19:14:44.608Z,103441.73
2019-02-14T19:20:21.296Z,103477.97
2019-02-14T19:23:11.030Z,103441.84
2019-02-14T19:25:53.496Z,103431.86
2019-02-14T19:28:42.915Z,103474.63
2019-02-14T19:31:25.212Z,103444.32
2019-02-14T19:33:56.706Z,103471.95
2019-02-14T19:39:47.812Z,103476.84
2019-02-14T19:42:37.111Z,103472.07
2019-02-14T19:45:19.631Z,103430.64
2019-02-14T19:48:01.293Z,103464.00
2019-02-14T19:53:45.578Z,103418.17
2019-02-14T19:56:35.196Z,103421.42
2019-02-14T19:59:17.500Z,103456.97
2019-02-14T20:02:07.131Z,103421.02
2019-02-14T20:04:50.953Z,103458.70
2019-02-14T20:07:40.559Z,103459.95
2019-02-14T20:10:23.345Z,103451.28
2019-02-14T20:13:12.939Z,103446.55
2019-02-14T20:15:55.240Z,103445.35
2019-02-14T20:18:44.613Z,103448.02
2019-02-14T20:21:26.653Z,103446.17
2019-02-14T20:24:15.987Z,103446.75
2019-02-14T20:26:59.493Z,103446.05
2019-02-14T20:32:52.025Z,103426.75
2019-02-14T20:35:43.712Z,103457.81
2019-02-14T20:38:14.479Z,103456.59
2019-02-14T20:41:04.078Z,103457.09
2019-02-14T20:43:46.469Z,103456.06
2019-02-14T20:46:35.863Z,103462.41
2019-02-14T20:49:17.952Z,103426.81
2019-02-14T20:55:09.459Z,103463.63
2019-02-14T21:01:03.773Z,103470.91
2019-02-14T21:04:07.228Z,103434.73
2019-02-14T21:06:36.809Z,103440.31
2019-02-14T21:12:27.594Z,103437.03
2019-02-14T21:15:17.234Z,103474.97
2019-02-14T21:18:01.063Z,103445.53
2019-02-14T21:23:51.902Z,103487.87
2019-02-14T21:26:43.576Z,103484.98
2019-02-14T21:29:25.377Z,103449.84
2019-02-14T21:35:17.837Z,103487.59
2019-02-14T21:38:07.500Z,103447.58
2019-02-14T21:40:49.670Z,103483.16
2019-02-14T21:43:53.146Z,103449.84
2019-02-14T21:46:25.197Z,103448.70
2019-02-14T21:55:17.720Z,103467.38
2019-02-14T22:01:12.322Z,103452.58
2019-02-14T22:04:01.680Z,103462.84
2019-02-14T22:06:44.221Z,103486.57
2019-02-14T22:09:33.782Z,103483.13
2019-02-14T22:12:16.044Z,103446.34
2019-02-14T22:18:07.593Z,103476.95
2019-02-14T22:20:37.825Z,103480.27
2019-02-14T22:23:27.691Z,103446.75
2019-02-14T22:26:36.452Z,103449.39
2019-02-14T22:29:18.157Z,103477.77
2019-02-14T22:35:11.025Z,103476.42
2019-02-14T22:38:00.400Z,103446.80
2019-02-14T22:40:42.966Z,103447.83
2019-02-14T22:43:32.315Z,103446.47
2019-02-14T22:46:14.565Z,103485.33
2019-02-14T22:48:56.377Z,103454.45
2019-02-14T22:54:34.928Z,103487.36
2019-02-14T22:57:24.235Z,103460.30
2019-02-14T23:00:10.123Z,103460.45
2019-02-14T23:02:59.908Z,103461.00
2019-02-14T23:05:42.612Z,103451.38
2019-02-14T23:08:51.693Z,103448.92
2019-02-14T23:11:34.624Z,103462.17
2019-02-14T23:17:25.302Z,103478.16
2019-02-14T23:20:14.951Z,103443.72
2019-02-14T23:22:57.169Z,103472.95
2019-02-14T23:28:48.857Z,103441.09
2019-02-14T23:34:45.024Z,103442.98
2019-02-14T23:37:36.631Z,103442.87
2019-02-14T23:40:28.989Z,103472.24
2019-02-14T23:43:10.928Z,103440.56
2019-02-14T23:46:00.598Z,103476.35
2019-02-14T23:48:30.913Z,103476.70
2019-02-14T23:51:20.576Z,103470.91
2019-02-14T23:54:02.566Z,103470.69
2019-02-14T23:56:52.162Z,103444.23
2019-02-14T23:59:34.510Z,103474.56
